Terminal Aerodrome Forecast
Issued by NWS Grand Forks, ND

Home | Current Version | Previous Version | Graphics & Text | Print | Product List | Glossary On
Versions: 1 2 3 4 5 6 7 8 9 10 11 12 13 14 15
000
FTUS43 KFGF 171730
TAFGFK
TAF
KGFK 171730Z 1718/1818 33011KT P6SM SCT120 SCT250
     FM181400 32011KT P6SM BKN025
     FM181700 32015G22KT P6SM SCT045=

USA.gov is the U.S. government's official web portal to all federal, state and local government web resources and services.